sensor_id;sensor_type;location;lat;lon;timestamp;P1;durP1;ratioP1;P2;durP2;ratioP2
22652;SDS011;11493;43.344;26.226;2023-03-31T00:00:50;18.77;;;9.15;;
22652;SDS011;11493;43.344;26.226;2023-03-31T00:03:19;18.35;;;8.95;;
22652;SDS011;11493;43.344;26.226;2023-03-31T00:05:56;14.95;;;8.48;;
22652;SDS011;11493;43.344;26.226;2023-03-31T00:08:28;12.43;;;7.00;;
22652;SDS011;11493;43.344;26.226;2023-03-31T00:11:01;9.48;;;6.57;;
22652;SDS011;11493;43.344;26.226;2023-03-31T00:13:30;7.15;;;6.38;;
22652;SDS011;11493;43.344;26.226;2023-03-31T00:15:58;7.38;;;6.25;;
22652;SDS011;11493;43.344;26.226;2023-03-31T00:18:27;8.53;;;6.37;;
22652;SDS011;11493;43.344;26.226;2023-03-31T00:21:05;7.20;;;6.30;;
22652;SDS011;11493;43.344;26.226;2023-03-31T00:23:33;9.13;;;6.88;;
22652;SDS011;11493;43.344;26.226;2023-03-31T00:26:01;13.23;;;7.25;;
22652;SDS011;11493;43.344;26.226;2023-03-31T00:28:28;14.25;;;7.90;;
22652;SDS011;11493;43.344;26.226;2023-03-31T00:30:58;14.48;;;7.53;;
22652;SDS011;11493;43.344;26.226;2023-03-31T00:35:53;19.42;;;8.23;;
22652;SDS011;11493;43.344;26.226;2023-03-31T00:38:21;11.48;;;6.95;;
22652;SDS011;11493;43.344;26.226;2023-03-31T00:40:55;10.73;;;7.32;;
22652;SDS011;11493;43.344;26.226;2023-03-31T00:48:50;15.93;;;6.68;;
22652;SDS011;11493;43.344;26.226;2023-03-31T00:51:19;8.50;;;6.00;;
22652;SDS011;11493;43.344;26.226;2023-03-31T00:53:50;9.07;;;5.93;;
22652;SDS011;11493;43.344;26.226;2023-03-31T00:56:25;11.57;;;5.00;;
22652;SDS011;11493;43.344;26.226;2023-03-31T00:58:57;8.30;;;5.30;;
22652;SDS011;11493;43.344;26.226;2023-03-31T01:01:28;13.10;;;5.20;;
22652;SDS011;11493;43.344;26.226;2023-03-31T01:03:56;6.10;;;4.43;;
22652;SDS011;11493;43.344;26.226;2023-03-31T01:06:25;5.90;;;4.50;;
22652;SDS011;11493;43.344;26.226;2023-03-31T01:11:23;3.88;;;3.38;;
22652;SDS011;11493;43.344;26.226;2023-03-31T01:13:54;6.38;;;4.22;;
22652;SDS011;11493;43.344;26.226;2023-03-31T01:16:22;6.35;;;4.20;;
22652;SDS011;11493;43.344;26.226;2023-03-31T01:18:49;7.57;;;4.30;;
22652;SDS011;11493;43.344;26.226;2023-03-31T01:30:04;5.85;;;4.13;;
22652;SDS011;11493;43.344;26.226;2023-03-31T01:32:56;6.78;;;4.03;;
22652;SDS011;11493;43.344;26.226;2023-03-31T01:46:01;10.80;;;5.10;;
22652;SDS011;11493;43.344;26.226;2023-03-31T01:48:45;8.80;;;4.68;;
22652;SDS011;11493;43.344;26.226;2023-03-31T01:51:42;9.45;;;5.03;;
22652;SDS011;11493;43.344;26.226;2023-03-31T01:57:27;7.22;;;5.07;;
22652;SDS011;11493;43.344;26.226;2023-03-31T02:00:05;15.43;;;6.40;;
22652;SDS011;11493;43.344;26.226;2023-03-31T02:05:34;13.52;;;7.13;;
22652;SDS011;11493;43.344;26.226;2023-03-31T02:08:09;8.43;;;6.50;;
22652;SDS011;11493;43.344;26.226;2023-03-31T02:10:41;11.20;;;5.95;;
22652;SDS011;11493;43.344;26.226;2023-03-31T02:13:11;9.30;;;5.18;;
22652;SDS011;11493;43.344;26.226;2023-03-31T02:15:42;9.43;;;5.18;;
22652;SDS011;11493;43.344;26.226;2023-03-31T02:18:14;8.43;;;5.28;;
22652;SDS011;11493;43.344;26.226;2023-03-31T02:20:45;7.75;;;4.70;;
22652;SDS011;11493;43.344;26.226;2023-03-31T02:23:15;6.35;;;4.97;;
22652;SDS011;11493;43.344;26.226;2023-03-31T02:25:50;7.38;;;5.13;;
22652;SDS011;11493;43.344;26.226;2023-03-31T02:28:20;12.82;;;6.65;;
22652;SDS011;11493;43.344;26.226;2023-03-31T02:33:28;10.77;;;6.30;;
22652;SDS011;11493;43.344;26.226;2023-03-31T02:35:56;9.88;;;5.97;;
22652;SDS011;11493;43.344;26.226;2023-03-31T02:38:26;9.52;;;5.90;;
22652;SDS011;11493;43.344;26.226;2023-03-31T02:40:57;9.77;;;5.37;;
22652;SDS011;11493;43.344;26.226;2023-03-31T02:43:24;7.32;;;5.10;;
22652;SDS011;11493;43.344;26.226;2023-03-31T02:45:52;4.90;;;3.95;;
22652;SDS011;11493;43.344;26.226;2023-03-31T03:02:50;10.70;;;6.10;;
22652;SDS011;11493;43.344;26.226;2023-03-31T03:11:30;11.02;;;7.75;;
22652;SDS011;11493;43.344;26.226;2023-03-31T03:14:03;7.70;;;6.28;;
22652;SDS011;11493;43.344;26.226;2023-03-31T03:16:49;7.45;;;5.30;;
22652;SDS011;11493;43.344;26.226;2023-03-31T03:19:31;6.80;;;4.97;;
22652;SDS011;11493;43.344;26.226;2023-03-31T03:21:58;6.53;;;4.75;;
22652;SDS011;11493;43.344;26.226;2023-03-31T03:24:25;4.93;;;4.40;;
22652;SDS011;11493;43.344;26.226;2023-03-31T03:26:55;7.45;;;3.67;;
22652;SDS011;11493;43.344;26.226;2023-03-31T03:29:23;4.35;;;3.92;;
22652;SDS011;11493;43.344;26.226;2023-03-31T03:31:49;7.60;;;4.45;;
22652;SDS011;11493;43.344;26.226;2023-03-31T03:34:17;8.27;;;4.00;;
22652;SDS011;11493;43.344;26.226;2023-03-31T03:36:45;7.05;;;4.93;;
22652;SDS011;11493;43.344;26.226;2023-03-31T03:39:13;9.73;;;5.70;;
22652;SDS011;11493;43.344;26.226;2023-03-31T03:41:40;11.63;;;5.97;;
22652;SDS011;11493;43.344;26.226;2023-03-31T03:44:06;8.63;;;5.47;;
22652;SDS011;11493;43.344;26.226;2023-03-31T03:46:33;9.40;;;6.53;;
22652;SDS011;11493;43.344;26.226;2023-03-31T03:49:00;8.65;;;6.45;;
22652;SDS011;11493;43.344;26.226;2023-03-31T03:51:27;10.73;;;6.93;;
22652;SDS011;11493;43.344;26.226;2023-03-31T03:53:54;10.15;;;7.07;;
22652;SDS011;11493;43.344;26.226;2023-03-31T03:56:21;6.65;;;5.53;;
22652;SDS011;11493;43.344;26.226;2023-03-31T03:58:48;27.58;;;13.50;;
22652;SDS011;11493;43.344;26.226;2023-03-31T04:01:16;25.08;;;9.63;;
22652;SDS011;11493;43.344;26.226;2023-03-31T04:03:44;15.27;;;8.25;;
22652;SDS011;11493;43.344;26.226;2023-03-31T04:06:11;13.07;;;6.47;;
22652;SDS011;11493;43.344;26.226;2023-03-31T04:08:38;12.02;;;7.32;;
22652;SDS011;11493;43.344;26.226;2023-03-31T04:11:09;7.95;;;6.38;;
22652;SDS011;11493;43.344;26.226;2023-03-31T04:13:45;16.35;;;6.25;;
22652;SDS011;11493;43.344;26.226;2023-03-31T04:16:12;12.65;;;5.40;;
22652;SDS011;11493;43.344;26.226;2023-03-31T04:18:40;9.20;;;5.63;;
22652;SDS011;11493;43.344;26.226;2023-03-31T04:21:12;8.50;;;5.47;;
22652;SDS011;11493;43.344;26.226;2023-03-31T04:23:49;8.40;;;5.53;;
22652;SDS011;11493;43.344;26.226;2023-03-31T04:26:24;11.70;;;6.65;;
22652;SDS011;11493;43.344;26.226;2023-03-31T04:28:56;14.57;;;8.40;;
22652;SDS011;11493;43.344;26.226;2023-03-31T04:31:26;15.50;;;11.17;;
22652;SDS011;11493;43.344;26.226;2023-03-31T04:33:56;21.17;;;13.32;;
22652;SDS011;11493;43.344;26.226;2023-03-31T04:36:28;30.67;;;9.60;;
22652;SDS011;11493;43.344;26.226;2023-03-31T04:38:56;15.23;;;10.15;;
22652;SDS011;11493;43.344;26.226;2023-03-31T04:41:24;24.35;;;12.55;;
22652;SDS011;11493;43.344;26.226;2023-03-31T04:43:53;25.40;;;14.68;;
22652;SDS011;11493;43.344;26.226;2023-03-31T04:46:20;28.90;;;15.43;;
22652;SDS011;11493;43.344;26.226;2023-03-31T04:48:48;27.25;;;15.73;;
22652;SDS011;11493;43.344;26.226;2023-03-31T04:51:15;30.15;;;15.25;;
22652;SDS011;11493;43.344;26.226;2023-03-31T04:53:42;27.05;;;14.57;;
22652;SDS011;11493;43.344;26.226;2023-03-31T04:56:09;28.30;;;12.75;;
22652;SDS011;11493;43.344;26.226;2023-03-31T04:58:37;32.50;;;13.27;;
22652;SDS011;11493;43.344;26.226;2023-03-31T05:01:04;23.42;;;11.35;;
22652;SDS011;11493;43.344;26.226;2023-03-31T05:03:34;28.92;;;11.10;;
22652;SDS011;11493;43.344;26.226;2023-03-31T05:06:02;31.02;;;13.80;;
22652;SDS011;11493;43.344;26.226;2023-03-31T05:08:30;21.08;;;8.43;;
22652;SDS011;11493;43.344;26.226;2023-03-31T05:10:57;14.77;;;8.63;;
22652;SDS011;11493;43.344;26.226;2023-03-31T05:13:24;9.98;;;7.20;;
22652;SDS011;11493;43.344;26.226;2023-03-31T05:15:51;8.68;;;6.82;;
22652;SDS011;11493;43.344;26.226;2023-03-31T05:18:18;13.70;;;7.10;;
22652;SDS011;11493;43.344;26.226;2023-03-31T05:20:45;15.35;;;7.30;;
22652;SDS011;11493;43.344;26.226;2023-03-31T05:23:12;14.65;;;8.02;;
22652;SDS011;11493;43.344;26.226;2023-03-31T05:25:40;14.35;;;10.40;;
22652;SDS011;11493;43.344;26.226;2023-03-31T05:28:08;13.80;;;10.00;;
22652;SDS011;11493;43.344;26.226;2023-03-31T05:30:38;13.17;;;10.47;;
22652;SDS011;11493;43.344;26.226;2023-03-31T05:33:05;19.35;;;11.30;;
22652;SDS011;11493;43.344;26.226;2023-03-31T05:35:32;16.73;;;11.35;;
22652;SDS011;11493;43.344;26.226;2023-03-31T05:37:59;22.77;;;10.98;;
22652;SDS011;11493;43.344;26.226;2023-03-31T05:40:26;21.38;;;12.05;;
22652;SDS011;11493;43.344;26.226;2023-03-31T05:42:53;18.73;;;12.15;;
22652;SDS011;11493;43.344;26.226;2023-03-31T05:45:20;18.50;;;12.68;;
22652;SDS011;11493;43.344;26.226;2023-03-31T05:47:47;27.50;;;14.73;;
22652;SDS011;11493;43.344;26.226;2023-03-31T05:50:14;31.95;;;15.27;;
22652;SDS011;11493;43.344;26.226;2023-03-31T05:52:41;27.10;;;16.80;;
22652;SDS011;11493;43.344;26.226;2023-03-31T05:55:09;35.03;;;13.60;;
22652;SDS011;11493;43.344;26.226;2023-03-31T05:57:36;35.05;;;16.05;;
22652;SDS011;11493;43.344;26.226;2023-03-31T06:00:03;37.50;;;14.77;;
22652;SDS011;11493;43.344;26.226;2023-03-31T06:02:32;33.45;;;14.98;;
22652;SDS011;11493;43.344;26.226;2023-03-31T06:04:59;35.90;;;16.70;;
22652;SDS011;11493;43.344;26.226;2023-03-31T06:07:26;37.08;;;14.23;;
22652;SDS011;11493;43.344;26.226;2023-03-31T06:09:53;35.05;;;15.93;;
22652;SDS011;11493;43.344;26.226;2023-03-31T06:12:20;30.23;;;13.25;;
22652;SDS011;11493;43.344;26.226;2023-03-31T06:14:47;29.80;;;14.88;;
22652;SDS011;11493;43.344;26.226;2023-03-31T06:17:14;25.58;;;15.52;;
22652;SDS011;11493;43.344;26.226;2023-03-31T06:19:41;26.35;;;14.43;;
22652;SDS011;11493;43.344;26.226;2023-03-31T06:22:08;37.85;;;15.05;;
22652;SDS011;11493;43.344;26.226;2023-03-31T06:24:35;31.75;;;15.38;;
22652;SDS011;11493;43.344;26.226;2023-03-31T06:27:02;31.95;;;17.63;;
22652;SDS011;11493;43.344;26.226;2023-03-31T06:29:29;26.33;;;16.10;;
22652;SDS011;11493;43.344;26.226;2023-03-31T06:31:56;31.02;;;15.65;;
22652;SDS011;11493;43.344;26.226;2023-03-31T06:34:24;30.58;;;17.05;;
22652;SDS011;11493;43.344;26.226;2023-03-31T06:36:51;35.00;;;18.58;;
22652;SDS011;11493;43.344;26.226;2023-03-31T06:39:18;36.45;;;17.65;;
22652;SDS011;11493;43.344;26.226;2023-03-31T06:41:46;34.63;;;18.67;;
22652;SDS011;11493;43.344;26.226;2023-03-31T06:44:22;79.22;;;36.78;;
22652;SDS011;11493;43.344;26.226;2023-03-31T06:46:50;88.35;;;39.85;;
22652;SDS011;11493;43.344;26.226;2023-03-31T06:49:17;79.15;;;35.88;;
22652;SDS011;11493;43.344;26.226;2023-03-31T06:51:44;60.50;;;28.60;;
22652;SDS011;11493;43.344;26.226;2023-03-31T06:54:11;39.95;;;23.50;;
22652;SDS011;11493;43.344;26.226;2023-03-31T06:56:38;50.78;;;28.70;;
22652;SDS011;11493;43.344;26.226;2023-03-31T06:59:05;56.92;;;32.08;;
22652;SDS011;11493;43.344;26.226;2023-03-31T07:01:32;54.92;;;31.40;;
22652;SDS011;11493;43.344;26.226;2023-03-31T07:04:02;52.75;;;29.00;;
22652;SDS011;11493;43.344;26.226;2023-03-31T07:06:30;47.63;;;25.90;;
22652;SDS011;11493;43.344;26.226;2023-03-31T07:08:57;42.00;;;24.27;;
22652;SDS011;11493;43.344;26.226;2023-03-31T07:11:24;36.97;;;21.63;;
22652;SDS011;11493;43.344;26.226;2023-03-31T07:13:51;12.98;;;10.15;;
22652;SDS011;11493;43.344;26.226;2023-03-31T07:16:18;10.30;;;7.70;;
22652;SDS011;11493;43.344;26.226;2023-03-31T07:18:46;9.05;;;6.38;;
22652;SDS011;11493;43.344;26.226;2023-03-31T07:21:13;10.18;;;6.05;;
22652;SDS011;11493;43.344;26.226;2023-03-31T07:23:40;9.32;;;5.28;;
22652;SDS011;11493;43.344;26.226;2023-03-31T07:26:07;6.25;;;5.25;;
22652;SDS011;11493;43.344;26.226;2023-03-31T07:28:34;8.38;;;5.95;;
22652;SDS011;11493;43.344;26.226;2023-03-31T07:31:01;7.55;;;6.47;;
22652;SDS011;11493;43.344;26.226;2023-03-31T07:33:29;9.35;;;6.68;;
22652;SDS011;11493;43.344;26.226;2023-03-31T07:35:57;7.72;;;6.47;;
22652;SDS011;11493;43.344;26.226;2023-03-31T07:38:38;9.82;;;7.30;;
22652;SDS011;11493;43.344;26.226;2023-03-31T07:41:09;9.95;;;8.38;;
22652;SDS011;11493;43.344;26.226;2023-03-31T07:43:37;8.60;;;6.38;;
22652;SDS011;11493;43.344;26.226;2023-03-31T07:46:05;12.70;;;7.22;;
22652;SDS011;11493;43.344;26.226;2023-03-31T07:48:34;7.50;;;5.63;;
22652;SDS011;11493;43.344;26.226;2023-03-31T07:51:01;7.93;;;4.50;;
22652;SDS011;11493;43.344;26.226;2023-03-31T07:53:33;5.78;;;4.70;;
22652;SDS011;11493;43.344;26.226;2023-03-31T07:56:00;9.48;;;5.88;;
22652;SDS011;11493;43.344;26.226;2023-03-31T07:58:27;15.85;;;11.45;;
22652;SDS011;11493;43.344;26.226;2023-03-31T08:00:54;11.57;;;8.88;;
22652;SDS011;11493;43.344;26.226;2023-03-31T08:03:21;12.20;;;7.88;;
22652;SDS011;11493;43.344;26.226;2023-03-31T08:05:52;10.85;;;6.78;;
22652;SDS011;11493;43.344;26.226;2023-03-31T08:08:19;8.00;;;5.93;;
22652;SDS011;11493;43.344;26.226;2023-03-31T08:10:47;12.55;;;8.13;;
22652;SDS011;11493;43.344;26.226;2023-03-31T08:13:14;13.63;;;8.10;;
22652;SDS011;11493;43.344;26.226;2023-03-31T08:15:41;13.73;;;9.77;;
22652;SDS011;11493;43.344;26.226;2023-03-31T08:18:08;24.00;;;13.73;;
22652;SDS011;11493;43.344;26.226;2023-03-31T08:20:35;112.75;;;52.30;;
22652;SDS011;11493;43.344;26.226;2023-03-31T08:23:04;62.67;;;30.08;;
22652;SDS011;11493;43.344;26.226;2023-03-31T08:25:34;19.33;;;13.45;;
22652;SDS011;11493;43.344;26.226;2023-03-31T08:28:01;15.40;;;12.35;;
22652;SDS011;11493;43.344;26.226;2023-03-31T08:30:28;22.00;;;14.65;;
22652;SDS011;11493;43.344;26.226;2023-03-31T08:32:55;14.93;;;8.80;;
22652;SDS011;11493;43.344;26.226;2023-03-31T08:35:23;11.02;;;7.82;;
22652;SDS011;11493;43.344;26.226;2023-03-31T08:37:49;7.68;;;5.80;;
22652;SDS011;11493;43.344;26.226;2023-03-31T08:40:21;9.00;;;5.80;;
22652;SDS011;11493;43.344;26.226;2023-03-31T08:42:55;12.38;;;8.82;;
22652;SDS011;11493;43.344;26.226;2023-03-31T08:45:32;10.32;;;6.80;;
22652;SDS011;11493;43.344;26.226;2023-03-31T08:50:44;8.93;;;5.70;;
22652;SDS011;11493;43.344;26.226;2023-03-31T08:53:20;7.85;;;5.90;;
22652;SDS011;11493;43.344;26.226;2023-03-31T08:55:58;26.23;;;13.23;;
22652;SDS011;11493;43.344;26.226;2023-03-31T08:58:43;11.95;;;6.80;;
22652;SDS011;11493;43.344;26.226;2023-03-31T09:09:56;3.13;;;2.50;;
22652;SDS011;11493;43.344;26.226;2023-03-31T09:18:13;12.00;;;7.03;;
22652;SDS011;11493;43.344;26.226;2023-03-31T09:20:45;10.50;;;7.57;;
22652;SDS011;11493;43.344;26.226;2023-03-31T09:23:21;9.20;;;4.82;;
22652;SDS011;11493;43.344;26.226;2023-03-31T09:25:55;4.50;;;2.78;;
22652;SDS011;11493;43.344;26.226;2023-03-31T09:28:34;4.80;;;2.95;;
22652;SDS011;11493;43.344;26.226;2023-03-31T09:31:12;4.67;;;3.33;;
22652;SDS011;11493;43.344;26.226;2023-03-31T09:33:43;5.32;;;2.47;;
22652;SDS011;11493;43.344;26.226;2023-03-31T09:36:18;4.90;;;3.15;;
22652;SDS011;11493;43.344;26.226;2023-03-31T09:38:49;4.75;;;2.85;;
22652;SDS011;11493;43.344;26.226;2023-03-31T09:41:17;4.45;;;2.85;;
22652;SDS011;11493;43.344;26.226;2023-03-31T09:43:45;8.85;;;6.15;;
22652;SDS011;11493;43.344;26.226;2023-03-31T09:49:09;4.40;;;2.78;;
22652;SDS011;11493;43.344;26.226;2023-03-31T09:51:42;5.25;;;2.63;;
22652;SDS011;11493;43.344;26.226;2023-03-31T09:54:14;8.60;;;3.25;;
22652;SDS011;11493;43.344;26.226;2023-03-31T09:56:48;8.93;;;4.47;;
22652;SDS011;11493;43.344;26.226;2023-03-31T09:59:20;8.00;;;4.07;;
22652;SDS011;11493;43.344;26.226;2023-03-31T10:01:49;7.43;;;4.25;;
22652;SDS011;11493;43.344;26.226;2023-03-31T10:04:22;4.68;;;3.30;;
22652;SDS011;11493;43.344;26.226;2023-03-31T10:06:51;6.38;;;2.85;;
22652;SDS011;11493;43.344;26.226;2023-03-31T10:09:20;7.88;;;5.30;;
22652;SDS011;11493;43.344;26.226;2023-03-31T10:11:52;4.57;;;3.45;;
22652;SDS011;11493;43.344;26.226;2023-03-31T10:16:52;5.28;;;3.95;;
22652;SDS011;11493;43.344;26.226;2023-03-31T10:19:23;7.30;;;4.32;;
22652;SDS011;11493;43.344;26.226;2023-03-31T10:24:35;4.72;;;3.60;;
22652;SDS011;11493;43.344;26.226;2023-03-31T10:27:29;6.25;;;3.42;;
22652;SDS011;11493;43.344;26.226;2023-03-31T10:29:59;7.10;;;3.88;;
22652;SDS011;11493;43.344;26.226;2023-03-31T10:32:29;8.57;;;2.78;;
22652;SDS011;11493;43.344;26.226;2023-03-31T10:35:03;5.95;;;3.05;;
22652;SDS011;11493;43.344;26.226;2023-03-31T10:37:32;7.95;;;4.03;;
22652;SDS011;11493;43.344;26.226;2023-03-31T10:40:16;10.25;;;4.88;;
22652;SDS011;11493;43.344;26.226;2023-03-31T10:42:56;7.40;;;5.05;;
22652;SDS011;11493;43.344;26.226;2023-03-31T10:45:28;5.25;;;3.63;;
22652;SDS011;11493;43.344;26.226;2023-03-31T10:48:04;10.65;;;4.05;;
22652;SDS011;11493;43.344;26.226;2023-03-31T10:50:42;5.90;;;3.67;;
22652;SDS011;11493;43.344;26.226;2023-03-31T10:53:13;4.28;;;3.72;;
22652;SDS011;11493;43.344;26.226;2023-03-31T10:56:03;4.45;;;3.30;;
22652;SDS011;11493;43.344;26.226;2023-03-31T11:04:00;4.47;;;3.70;;
22652;SDS011;11493;43.344;26.226;2023-03-31T11:18:00;4.55;;;2.60;;
22652;SDS011;11493;43.344;26.226;2023-03-31T11:27:20;5.45;;;2.80;;
22652;SDS011;11493;43.344;26.226;2023-03-31T11:29:35;5.55;;;2.60;;
22652;SDS011;11493;43.344;26.226;2023-03-31T11:44:15;7.72;;;3.60;;
22652;SDS011;11493;43.344;26.226;2023-03-31T11:46:47;14.10;;;5.90;;
22652;SDS011;11493;43.344;26.226;2023-03-31T11:49:26;7.22;;;4.70;;
22652;SDS011;11493;43.344;26.226;2023-03-31T11:52:08;7.43;;;3.17;;
22652;SDS011;11493;43.344;26.226;2023-03-31T11:57:23;8.73;;;4.00;;
22652;SDS011;11493;43.344;26.226;2023-03-31T12:00:05;6.53;;;3.63;;
22652;SDS011;11493;43.344;26.226;2023-03-31T12:02:53;11.02;;;5.45;;
22652;SDS011;11493;43.344;26.226;2023-03-31T12:05:24;9.80;;;5.90;;
22652;SDS011;11493;43.344;26.226;2023-03-31T12:13:42;3.90;;;2.63;;
22652;SDS011;11493;43.344;26.226;2023-03-31T12:19:04;9.85;;;2.90;;
22652;SDS011;11493;43.344;26.226;2023-03-31T12:21:49;3.30;;;2.92;;
22652;SDS011;11493;43.344;26.226;2023-03-31T12:24:19;4.13;;;2.50;;
22652;SDS011;11493;43.344;26.226;2023-03-31T12:29:44;2.67;;;1.83;;
22652;SDS011;11493;43.344;26.226;2023-03-31T12:32:18;3.25;;;1.48;;
22652;SDS011;11493;43.344;26.226;2023-03-31T12:35:02;2.15;;;1.60;;
22652;SDS011;11493;43.344;26.226;2023-03-31T12:40:08;3.13;;;2.00;;
22652;SDS011;11493;43.344;26.226;2023-03-31T12:46:19;4.55;;;1.80;;
22652;SDS011;11493;43.344;26.226;2023-03-31T12:48:42;7.13;;;1.35;;
22652;SDS011;11493;43.344;26.226;2023-03-31T12:59:33;2.65;;;1.20;;
22652;SDS011;11493;43.344;26.226;2023-03-31T13:04:35;2.97;;;1.50;;
22652;SDS011;11493;43.344;26.226;2023-03-31T13:07:04;2.55;;;1.20;;
22652;SDS011;11493;43.344;26.226;2023-03-31T13:09:56;2.17;;;1.35;;
22652;SDS011;11493;43.344;26.226;2023-03-31T13:15:39;2.72;;;1.73;;
22652;SDS011;11493;43.344;26.226;2023-03-31T13:18:17;2.10;;;1.55;;
22652;SDS011;11493;43.344;26.226;2023-03-31T13:20:55;4.57;;;1.60;;
22652;SDS011;11493;43.344;26.226;2023-03-31T13:23:25;6.30;;;1.92;;
22652;SDS011;11493;43.344;26.226;2023-03-31T13:25:57;3.90;;;1.92;;
22652;SDS011;11493;43.344;26.226;2023-03-31T13:28:25;5.00;;;1.77;;
22652;SDS011;11493;43.344;26.226;2023-03-31T13:31:12;4.00;;;1.90;;
22652;SDS011;11493;43.344;26.226;2023-03-31T13:33:41;6.93;;;2.53;;
22652;SDS011;11493;43.344;26.226;2023-03-31T13:49:52;6.53;;;2.90;;
22652;SDS011;11493;43.344;26.226;2023-03-31T13:55:51;3.72;;;1.70;;
22652;SDS011;11493;43.344;26.226;2023-03-31T14:07:49;5.63;;;1.50;;
22652;SDS011;11493;43.344;26.226;2023-03-31T14:10:24;4.22;;;1.63;;
22652;SDS011;11493;43.344;26.226;2023-03-31T14:15:51;3.38;;;2.20;;
22652;SDS011;11493;43.344;26.226;2023-03-31T14:18:28;11.13;;;1.77;;
22652;SDS011;11493;43.344;26.226;2023-03-31T14:23:36;5.30;;;2.22;;
22652;SDS011;11493;43.344;26.226;2023-03-31T14:26:43;5.30;;;2.13;;
22652;SDS011;11493;43.344;26.226;2023-03-31T14:29:41;8.55;;;1.63;;
22652;SDS011;11493;43.344;26.226;2023-03-31T14:37:49;4.68;;;1.60;;
22652;SDS011;11493;43.344;26.226;2023-03-31T14:40:16;9.23;;;6.00;;
22652;SDS011;11493;43.344;26.226;2023-03-31T14:42:44;4.60;;;1.55;;
22652;SDS011;11493;43.344;26.226;2023-03-31T14:45:17;3.22;;;1.40;;
22652;SDS011;11493;43.344;26.226;2023-03-31T14:48:08;5.75;;;3.13;;
22652;SDS011;11493;43.344;26.226;2023-03-31T14:50:43;4.45;;;2.15;;
22652;SDS011;11493;43.344;26.226;2023-03-31T14:53:15;11.45;;;3.38;;
22652;SDS011;11493;43.344;26.226;2023-03-31T14:58:25;5.10;;;1.98;;
22652;SDS011;11493;43.344;26.226;2023-03-31T15:00:57;8.68;;;2.15;;
22652;SDS011;11493;43.344;26.226;2023-03-31T15:03:24;5.05;;;1.83;;
22652;SDS011;11493;43.344;26.226;2023-03-31T15:05:56;3.78;;;2.42;;
22652;SDS011;11493;43.344;26.226;2023-03-31T15:08:25;6.97;;;4.50;;
22652;SDS011;11493;43.344;26.226;2023-03-31T15:10:54;11.70;;;7.72;;
22652;SDS011;11493;43.344;26.226;2023-03-31T15:13:44;6.93;;;3.38;;
22652;SDS011;11493;43.344;26.226;2023-03-31T15:16:30;10.60;;;3.13;;
22652;SDS011;11493;43.344;26.226;2023-03-31T15:21:52;10.38;;;3.22;;
22652;SDS011;11493;43.344;26.226;2023-03-31T15:24:21;5.03;;;3.80;;
22652;SDS011;11493;43.344;26.226;2023-03-31T15:29:37;16.38;;;9.48;;
22652;SDS011;11493;43.344;26.226;2023-03-31T15:32:14;27.35;;;16.45;;
22652;SDS011;11493;43.344;26.226;2023-03-31T15:34:53;33.17;;;12.00;;
22652;SDS011;11493;43.344;26.226;2023-03-31T15:37:42;20.80;;;13.48;;
22652;SDS011;11493;43.344;26.226;2023-03-31T15:40:20;13.18;;;8.88;;
22652;SDS011;11493;43.344;26.226;2023-03-31T15:42:49;12.55;;;7.80;;
22652;SDS011;11493;43.344;26.226;2023-03-31T15:45:46;9.60;;;8.13;;
22652;SDS011;11493;43.344;26.226;2023-03-31T15:48:34;13.13;;;7.38;;
22652;SDS011;11493;43.344;26.226;2023-03-31T15:53:44;14.93;;;9.35;;
22652;SDS011;11493;43.344;26.226;2023-03-31T15:59:03;14.57;;;9.70;;
22652;SDS011;11493;43.344;26.226;2023-03-31T16:01:32;15.10;;;11.45;;
22652;SDS011;11493;43.344;26.226;2023-03-31T16:04:05;13.18;;;9.80;;
22652;SDS011;11493;43.344;26.226;2023-03-31T16:09:16;24.33;;;11.80;;
22652;SDS011;11493;43.344;26.226;2023-03-31T16:11:51;16.00;;;7.70;;
22652;SDS011;11493;43.344;26.226;2023-03-31T16:14:34;7.15;;;4.32;;
22652;SDS011;11493;43.344;26.226;2023-03-31T16:17:10;15.32;;;10.13;;
22652;SDS011;11493;43.344;26.226;2023-03-31T16:19:47;34.53;;;14.60;;
22652;SDS011;11493;43.344;26.226;2023-03-31T16:22:20;33.88;;;15.15;;
22652;SDS011;11493;43.344;26.226;2023-03-31T16:24:49;23.45;;;12.98;;
22652;SDS011;11493;43.344;26.226;2023-03-31T16:27:16;19.25;;;11.50;;
22652;SDS011;11493;43.344;26.226;2023-03-31T16:29:44;25.90;;;12.27;;
22652;SDS011;11493;43.344;26.226;2023-03-31T16:32:14;26.77;;;11.00;;
22652;SDS011;11493;43.344;26.226;2023-03-31T16:35:00;22.67;;;14.75;;
22652;SDS011;11493;43.344;26.226;2023-03-31T16:37:29;20.33;;;12.25;;
22652;SDS011;11493;43.344;26.226;2023-03-31T16:39:56;16.05;;;11.73;;
22652;SDS011;11493;43.344;26.226;2023-03-31T16:42:23;15.13;;;10.35;;
22652;SDS011;11493;43.344;26.226;2023-03-31T16:44:51;17.85;;;10.60;;
22652;SDS011;11493;43.344;26.226;2023-03-31T16:47:21;20.98;;;13.52;;
22652;SDS011;11493;43.344;26.226;2023-03-31T16:50:01;21.85;;;13.85;;
22652;SDS011;11493;43.344;26.226;2023-03-31T16:52:33;23.13;;;13.60;;
22652;SDS011;11493;43.344;26.226;2023-03-31T16:55:03;33.83;;;17.90;;
22652;SDS011;11493;43.344;26.226;2023-03-31T16:57:30;33.63;;;17.90;;
22652;SDS011;11493;43.344;26.226;2023-03-31T16:59:57;28.77;;;17.60;;
22652;SDS011;11493;43.344;26.226;2023-03-31T17:02:25;36.15;;;23.55;;
22652;SDS011;11493;43.344;26.226;2023-03-31T17:04:52;41.35;;;28.52;;
22652;SDS011;11493;43.344;26.226;2023-03-31T17:07:24;33.15;;;23.60;;
22652;SDS011;11493;43.344;26.226;2023-03-31T17:09:52;33.47;;;22.00;;
22652;SDS011;11493;43.344;26.226;2023-03-31T17:12:19;34.28;;;20.23;;
22652;SDS011;11493;43.344;26.226;2023-03-31T17:14:46;42.80;;;23.23;;
22652;SDS011;11493;43.344;26.226;2023-03-31T17:17:13;46.28;;;27.63;;
22652;SDS011;11493;43.344;26.226;2023-03-31T17:19:43;49.10;;;28.98;;
22652;SDS011;11493;43.344;26.226;2023-03-31T17:22:10;51.92;;;29.70;;
22652;SDS011;11493;43.344;26.226;2023-03-31T17:24:37;47.67;;;31.60;;
22652;SDS011;11493;43.344;26.226;2023-03-31T17:27:04;39.63;;;25.58;;
22652;SDS011;11493;43.344;26.226;2023-03-31T17:29:31;43.03;;;25.98;;
22652;SDS011;11493;43.344;26.226;2023-03-31T17:31:58;48.78;;;27.67;;
22652;SDS011;11493;43.344;26.226;2023-03-31T17:34:25;51.38;;;27.80;;
22652;SDS011;11493;43.344;26.226;2023-03-31T17:36:52;50.17;;;29.98;;
22652;SDS011;11493;43.344;26.226;2023-03-31T17:39:21;52.90;;;29.80;;
22652;SDS011;11493;43.344;26.226;2023-03-31T17:41:48;50.33;;;26.17;;
22652;SDS011;11493;43.344;26.226;2023-03-31T17:44:16;54.22;;;24.95;;
22652;SDS011;11493;43.344;26.226;2023-03-31T17:46:43;39.67;;;21.02;;
22652;SDS011;11493;43.344;26.226;2023-03-31T17:49:10;34.88;;;18.10;;
22652;SDS011;11493;43.344;26.226;2023-03-31T17:51:37;37.83;;;18.25;;
22652;SDS011;11493;43.344;26.226;2023-03-31T17:54:05;32.85;;;19.20;;
22652;SDS011;11493;43.344;26.226;2023-03-31T17:56:32;77.60;;;40.38;;
22652;SDS011;11493;43.344;26.226;2023-03-31T17:59:00;46.83;;;28.60;;
22652;SDS011;11493;43.344;26.226;2023-03-31T18:01:27;56.15;;;28.15;;
22652;SDS011;11493;43.344;26.226;2023-03-31T18:03:54;61.78;;;33.05;;
22652;SDS011;11493;43.344;26.226;2023-03-31T18:06:23;69.38;;;37.83;;
22652;SDS011;11493;43.344;26.226;2023-03-31T18:08:50;62.72;;;35.13;;
22652;SDS011;11493;43.344;26.226;2023-03-31T18:11:17;44.10;;;27.48;;
22652;SDS011;11493;43.344;26.226;2023-03-31T18:13:44;40.75;;;23.77;;